Time;durP1;ratioP1;P1;durP2;ratioP2;P2;SDS_P1;SDS_P2;PMS_P1;PMS_P2;Temp;Humidity;BMP_temperature;BMP_pressure;BME280_temperature;BME280_humidity;BME280_pressure;Samples;Min_cycle;Max_cycle;Signal;HPM_P1;HPM_P2
2021/03/21 00:01:54;;;;;;;5.40;4.10;;;8.80;29.70;;;;;;5082850;28;20619;-50
2021/03/21 00:04:22;;;;;;;3.97;3.60;;;8.80;29.70;;;;;;5093783;28;20658;-50
2021/03/21 00:06:49;;;;;;;5.30;4.00;;;8.80;29.70;;;;;;5093761;28;20696;-51
2021/03/21 00:09:16;;;;;;;4.77;3.30;;;8.80;29.80;;;;;;5094068;28;20618;-50
2021/03/21 00:11:42;;;;;;;3.07;2.87;;;8.80;29.90;;;;;;5082516;28;20635;-50
2021/03/21 00:14:09;;;;;;;4.47;4.07;;;8.80;29.90;;;;;;5093974;28;21253;-51
2021/03/21 00:16:36;;;;;;;4.93;3.43;;;8.80;30.00;;;;;;5094066;28;20695;-51
2021/03/21 00:19:03;;;;;;;4.30;3.73;;;8.90;30.00;;;;;;5092772;28;20627;-50
2021/03/21 00:21:31;;;;;;;4.67;4.27;;;8.90;30.00;;;;;;5094015;28;21045;-50
2021/03/21 00:23:58;;;;;;;6.50;3.93;;;8.90;30.00;;;;;;5093736;28;20971;-50
2021/03/21 00:26:24;;;;;;;6.90;4.30;;;8.80;30.20;;;;;;5093049;28;20662;-50
2021/03/21 00:28:51;;;;;;;3.57;3.27;;;8.80;30.50;;;;;;5093766;28;21244;-50
2021/03/21 00:31:19;;;;;;;5.33;3.67;;;8.80;30.80;;;;;;5093801;28;21023;-50
2021/03/21 00:33:45;;;;;;;9.40;4.37;;;8.80;30.50;;;;;;5093315;28;20676;-51
2021/03/21 00:36:13;;;;;;;3.70;3.17;;;8.70;30.50;;;;;;5093361;28;20676;-50
2021/03/21 00:38:43;;;;;;;4.27;3.70;;;8.70;30.60;;;;;;5090212;28;21178;-50
2021/03/21 00:41:11;;;;;;;4.00;3.60;;;8.70;30.80;;;;;;5093348;28;20630;-49
2021/03/21 00:43:38;;;;;;;6.00;3.60;;;8.60;30.90;;;;;;5093563;28;20658;-51
2021/03/21 00:46:05;;;;;;;4.07;3.67;;;8.60;31.10;;;;;;5092547;28;21267;-51
2021/03/21 00:48:32;;;;;;;5.50;4.50;;;8.70;31.30;;;;;;5093361;28;20637;-51
2021/03/21 00:50:59;;;;;;;4.13;3.13;;;8.70;31.50;;;;;;5093832;28;20619;-51
2021/03/21 00:53:26;;;;;;;4.90;4.00;;;8.80;31.50;;;;;;5092920;28;21254;-50
2021/03/21 00:55:54;;;;;;;3.70;3.30;;;8.80;31.90;;;;;;5092774;28;20635;-50
2021/03/21 00:58:20;;;;;;;7.57;3.87;;;8.70;31.80;;;;;;5092688;28;20677;-51
2021/03/21 01:00:48;;;;;;;6.17;4.33;;;8.70;31.90;;;;;;5093142;28;20631;-51
2021/03/21 01:03:15;;;;;;;6.03;3.80;;;8.70;32.00;;;;;;5093246;28;20851;-51
2021/03/21 01:05:43;;;;;;;3.90;3.60;;;8.70;32.10;;;;;;5093154;28;21212;-50
2021/03/21 01:08:16;;;;;;;8.47;4.20;;;8.70;32.10;;;;;;5091786;28;20639;-50
2021/03/21 01:10:44;;;;;;;4.43;4.03;;;8.70;32.10;;;;;;5092503;28;21256;-50
2021/03/21 01:13:11;;;;;;;4.80;4.10;;;8.70;32.20;;;;;;5092234;28;21191;-50
2021/03/21 01:15:38;;;;;;;7.10;3.80;;;8.70;32.30;;;;;;5092102;28;21254;-51
2021/03/21 01:18:06;;;;;;;8.37;4.20;;;8.70;32.50;;;;;;5092155;28;20635;-51
2021/03/21 01:20:33;;;;;;;8.97;4.40;;;8.60;32.60;;;;;;5092646;28;20649;-50
2021/03/21 01:22:59;;;;;;;4.23;3.83;;;8.60;32.70;;;;;;5092332;28;20672;-51
2021/03/21 01:25:27;;;;;;;5.13;4.57;;;8.70;32.90;;;;;;5092322;28;20745;-51
2021/03/21 01:27:54;;;;;;;4.90;3.83;;;8.60;33.30;;;;;;5092738;28;20673;-51
2021/03/21 01:30:23;;;;;;;6.17;4.87;;;8.60;32.80;;;;;;5092956;28;20627;-50
2021/03/21 01:32:50;;;;;;;6.37;3.80;;;8.50;32.90;;;;;;5082582;28;20644;-51
2021/03/21 01:35:16;;;;;;;4.90;4.20;;;8.50;33.10;;;;;;5071968;28;20628;-50
2021/03/21 01:37:43;;;;;;;4.80;4.17;;;8.50;33.30;;;;;;5072103;28;20627;-51
2021/03/21 01:40:11;;;;;;;4.33;3.93;;;8.50;33.30;;;;;;5085193;28;20626;-50
2021/03/21 01:42:38;;;;;;;7.73;4.97;;;8.50;33.50;;;;;;5090662;28;20617;-51
2021/03/21 01:45:37;;;;;;;5.47;4.70;;;8.40;34.00;;;;;;5092685;28;20647;-51
2021/03/21 01:48:05;;;;;;;5.53;3.83;;;8.50;33.50;;;;;;5091929;28;20626;-51
2021/03/21 01:50:43;;;;;;;8.30;4.83;;;8.50;33.70;;;;;;5091271;28;21182;-51
2021/03/21 01:53:09;;;;;;;4.57;4.17;;;8.50;33.60;;;;;;5092643;28;20708;-51
2021/03/21 01:55:36;;;;;;;4.83;4.43;;;8.50;33.70;;;;;;5091984;28;20664;-50
2021/03/21 01:58:03;;;;;;;5.00;4.50;;;8.50;33.70;;;;;;5090599;28;21239;-51
2021/03/21 02:00:30;;;;;;;6.57;4.23;;;8.50;33.90;;;;;;5091174;28;21273;-51
2021/03/21 02:02:57;;;;;;;4.80;4.07;;;8.50;33.90;;;;;;5091453;28;21030;-51
2021/03/21 02:05:24;;;;;;;5.77;4.17;;;8.40;33.80;;;;;;5091588;28;20623;-51
2021/03/21 02:08:10;;;;;;;4.23;3.83;;;8.40;33.80;;;;;;5091832;28;20652;-50
2021/03/21 02:10:40;;;;;;;4.97;4.13;;;8.40;33.90;;;;;;5091468;28;21186;-51
2021/03/21 02:13:09;;;;;;;4.67;3.83;;;8.40;34.00;;;;;;5091900;28;21229;-50
2021/03/21 02:15:37;;;;;;;5.27;4.60;;;8.40;34.10;;;;;;5091075;28;20627;-50
2021/03/21 02:18:10;;;;;;;6.83;4.70;;;8.40;34.00;;;;;;5091803;28;20618;-50
2021/03/21 02:21:03;;;;;;;6.10;4.53;;;8.40;34.10;;;;;;5092215;28;20618;-50
2021/03/21 02:23:45;;;;;;;5.20;4.30;;;8.40;34.20;;;;;;5090846;28;20698;-48
2021/03/21 02:26:18;;;;;;;5.57;3.93;;;8.40;34.20;;;;;;5071720;28;20658;-50
2021/03/21 02:29:17;;;;;;;5.27;4.33;;;8.40;34.20;;;;;;5102265;28;20623;-50
2021/03/21 02:31:46;;;;;;;10.10;5.50;;;8.40;34.30;;;;;;5076738;28;21184;-50
2021/03/21 02:34:17;;;;;;;6.00;5.10;;;8.40;34.30;;;;;;5080855;28;20662;-50
2021/03/21 02:36:45;;;;;;;4.37;3.97;;;8.40;34.40;;;;;;5091176;28;20627;-50
2021/03/21 02:39:14;;;;;;;5.10;4.30;;;8.30;34.30;;;;;;5091470;28;20625;-50
2021/03/21 02:41:42;;;;;;;4.30;3.90;;;8.40;34.40;;;;;;5091717;28;20627;-50
2021/03/21 02:44:12;;;;;;;4.00;3.63;;;8.40;34.50;;;;;;5091197;28;20643;-50
2021/03/21 02:46:41;;;;;;;3.97;3.40;;;8.30;34.70;;;;;;5090381;28;21004;-50
2021/03/21 02:49:14;;;;;;;5.90;4.40;;;8.40;34.80;;;;;;5070934;28;20628;-50
2021/03/21 02:51:46;;;;;;;5.53;4.40;;;8.30;34.80;;;;;;5078468;28;20685;-50
2021/03/21 02:54:16;;;;;;;6.43;4.53;;;8.40;34.90;;;;;;5091162;28;20695;-50
2021/03/21 02:56:43;;;;;;;5.40;4.90;;;8.40;34.90;;;;;;5091246;28;20635;-50
2021/03/21 02:59:12;;;;;;;6.73;5.00;;;8.40;34.80;;;;;;5086401;28;20707;-50
2021/03/21 03:01:42;;;;;;;5.80;4.57;;;8.30;34.80;;;;;;5078291;28;20634;-50
2021/03/21 03:04:12;;;;;;;6.00;5.20;;;8.30;34.90;;;;;;5090137;28;20701;-49
2021/03/21 03:06:42;;;;;;;5.07;3.67;;;8.30;35.10;;;;;;5091244;28;21178;-49
2021/03/21 03:09:12;;;;;;;5.10;4.60;;;8.30;35.20;;;;;;5092558;28;20666;-49
2021/03/21 03:11:41;;;;;;;4.50;4.10;;;8.30;35.30;;;;;;5094979;28;20745;-50
2021/03/21 03:14:10;;;;;;;6.10;5.50;;;8.20;36.00;;;;;;5094889;28;20720;-51
2021/03/21 03:16:40;;;;;;;5.17;4.07;;;8.20;35.50;;;;;;5094432;28;21217;-50
2021/03/21 03:19:08;;;;;;;5.03;4.53;;;8.20;36.30;;;;;;5094370;28;20624;-49
2021/03/21 03:21:39;;;;;;;6.40;4.80;;;8.20;35.90;;;;;;5095252;28;20675;-50
2021/03/21 03:24:08;;;;;;;5.10;4.53;;;8.20;36.00;;;;;;5086326;28;20717;-49
2021/03/21 03:26:39;;;;;;;5.10;4.47;;;8.10;35.90;;;;;;5073379;28;20628;-50
2021/03/21 03:29:09;;;;;;;6.33;4.93;;;8.10;36.20;;;;;;5094342;28;20632;-50
2021/03/21 03:31:37;;;;;;;6.40;5.20;;;8.10;36.10;;;;;;5095251;28;20627;-50
2021/03/21 03:34:04;;;;;;;5.50;4.10;;;8.10;36.20;;;;;;5094969;28;20689;-49
2021/03/21 03:36:30;;;;;;;6.53;4.30;;;8.10;36.40;;;;;;5094788;28;20756;-49
2021/03/21 03:38:58;;;;;;;6.37;4.90;;;8.00;36.50;;;;;;5094715;28;20623;-49
2021/03/21 03:41:30;;;;;;;4.33;3.50;;;8.00;36.50;;;;;;5094614;28;20820;-49
2021/03/21 03:43:59;;;;;;;4.40;3.90;;;8.00;36.70;;;;;;5094788;28;20650;-50
2021/03/21 03:46:30;;;;;;;4.83;4.23;;;8.00;36.80;;;;;;5092475;28;20642;-50
2021/03/21 03:49:00;;;;;;;4.30;3.90;;;8.00;36.80;;;;;;5094680;28;20630;-50
2021/03/21 03:51:29;;;;;;;4.10;3.70;;;8.00;36.90;;;;;;5094679;28;20980;-50
2021/03/21 03:54:08;;;;;;;4.17;3.77;;;8.00;36.90;;;;;;5094167;28;21307;-51
2021/03/21 03:56:42;;;;;;;5.87;4.53;;;8.10;37.10;;;;;;5093928;28;20632;-50
2021/03/21 03:59:11;;;;;;;6.60;5.30;;;8.10;37.10;;;;;;5094267;28;20629;-50
2021/03/21 04:01:40;;;;;;;9.93;5.33;;;8.10;37.30;;;;;;5093228;28;20642;-51
2021/03/21 04:04:18;;;;;;;5.20;4.43;;;8.10;37.50;;;;;;5094180;28;20653;-49
2021/03/21 04:06:49;;;;;;;5.27;4.23;;;8.10;38.10;;;;;;5094360;28;20679;-49
2021/03/21 04:09:19;;;;;;;5.27;4.60;;;8.10;37.80;;;;;;5094224;28;20675;-49
2021/03/21 04:11:50;;;;;;;5.77;5.17;;;8.10;38.00;;;;;;5093752;28;21374;-50
2021/03/21 04:14:19;;;;;;;5.93;5.10;;;8.10;38.10;;;;;;5093983;28;21040;-50
2021/03/21 04:16:47;;;;;;;6.27;4.90;;;8.10;38.60;;;;;;5093673;28;20635;-49
2021/03/21 04:19:14;;;;;;;5.47;4.90;;;8.10;38.40;;;;;;5093782;28;20631;-49
2021/03/21 04:21:42;;;;;;;6.30;5.70;;;8.10;38.40;;;;;;5092922;28;20680;-50
2021/03/21 04:24:11;;;;;;;5.70;4.60;;;8.10;38.60;;;;;;5091580;28;20705;-50
2021/03/21 04:26:41;;;;;;;6.63;5.07;;;8.10;38.60;;;;;;5092383;28;20637;-50
2021/03/21 04:29:10;;;;;;;4.80;4.30;;;8.10;38.70;;;;;;5093831;28;20693;-49
2021/03/21 04:31:37;;;;;;;4.37;3.97;;;8.10;38.80;;;;;;5076639;28;20653;-49
2021/03/21 04:34:05;;;;;;;5.60;4.90;;;8.10;39.10;;;;;;5089333;28;20720;-49
2021/03/21 04:36:33;;;;;;;8.00;5.67;;;8.10;39.10;;;;;;5093948;28;20627;-49
2021/03/21 04:39:02;;;;;;;7.60;5.30;;;8.10;39.20;;;;;;5093497;28;20702;-49
2021/03/21 04:41:31;;;;;;;5.27;4.77;;;8.10;39.30;;;;;;5094073;28;20643;-49
2021/03/21 04:44:03;;;;;;;5.67;5.17;;;8.10;39.40;;;;;;5093345;28;20655;-50
2021/03/21 04:46:30;;;;;;;6.87;5.80;;;8.10;39.50;;;;;;5092843;28;20683;-50
2021/03/21 04:48:57;;;;;;;6.00;5.40;;;8.10;40.00;;;;;;5093426;28;20629;-49
2021/03/21 04:51:26;;;;;;;7.80;5.40;;;8.00;39.80;;;;;;5093849;28;20629;-48
2021/03/21 04:53:54;;;;;;;9.20;6.60;;;8.10;39.90;;;;;;5094593;28;20808;-49
2021/03/21 04:56:25;;;;;;;5.47;4.90;;;8.10;40.00;;;;;;5093244;28;20634;-49
2021/03/21 04:58:54;;;;;;;5.90;5.30;;;8.00;40.40;;;;;;5078504;28;20623;-49
2021/03/21 05:01:23;;;;;;;7.43;5.77;;;7.90;40.50;;;;;;5095338;28;20683;-49
2021/03/21 05:03:54;;;;;;;8.70;5.57;;;7.90;40.60;;;;;;5092946;28;20718;-50
2021/03/21 05:06:23;;;;;;;5.30;4.80;;;7.90;40.80;;;;;;5092769;28;20635;-50
2021/03/21 05:08:52;;;;;;;5.90;5.10;;;7.90;41.00;;;;;;5093051;28;21022;-49
2021/03/21 05:11:19;;;;;;;6.63;5.07;;;7.90;40.90;;;;;;5090725;28;20626;-49
2021/03/21 05:13:51;;;;;;;6.40;4.93;;;7.90;40.80;;;;;;5072791;28;20720;-49
2021/03/21 05:16:22;;;;;;;8.13;5.90;;;8.00;40.90;;;;;;5092517;28;20676;-49
2021/03/21 05:18:50;;;;;;;5.77;5.27;;;8.00;41.00;;;;;;5092479;28;20660;-49
2021/03/21 05:21:19;;;;;;;7.60;5.50;;;7.90;41.00;;;;;;5093323;28;20769;-49
2021/03/21 05:23:53;;;;;;;7.00;5.50;;;8.00;41.00;;;;;;5093045;28;21069;-50
2021/03/21 05:26:22;;;;;;;7.30;5.17;;;7.90;41.20;;;;;;5092220;28;20688;-49
2021/03/21 05:28:55;;;;;;;7.13;5.83;;;7.90;41.30;;;;;;5092345;28;20685;-49
2021/03/21 05:31:24;;;;;;;6.00;5.00;;;8.00;41.60;;;;;;5092581;28;21051;-50
2021/03/21 05:33:50;;;;;;;5.80;5.30;;;8.00;41.90;;;;;;5074435;28;20679;-51
2021/03/21 05:36:27;;;;;;;12.20;5.60;;;7.90;42.60;;;;;;5073343;28;20623;-51
2021/03/21 05:38:56;;;;;;;5.83;5.00;;;7.80;43.00;;;;;;5077771;28;20679;-49
2021/03/21 05:41:34;;;;;;;9.87;3.80;;;7.80;43.30;;;;;;5092567;28;21188;-49
2021/03/21 05:44:39;;;;;;;9.67;6.87;;;7.80;43.50;;;;;;5092271;28;21040;-49
2021/03/21 05:47:35;;;;;;;7.20;5.87;;;7.70;43.70;;;;;;5085649;28;20640;-49
2021/03/21 05:50:36;;;;;;;5.50;5.00;;;7.70;43.70;;;;;;5092542;28;20984;-49
2021/03/21 05:53:39;;;;;;;5.53;5.03;;;7.70;43.80;;;;;;5081012;28;21407;-50
2021/03/21 05:56:15;;;;;;;7.77;5.07;;;7.70;43.70;;;;;;5084503;28;20679;-49
2021/03/21 05:59:02;;;;;;;7.30;4.90;;;7.70;43.80;;;;;;5092186;28;20625;-49
2021/03/21 06:01:50;;;;;;;5.93;4.77;;;7.70;44.20;;;;;;5088448;28;20688;-50
2021/03/21 06:04:46;;;;;;;5.70;4.63;;;7.70;43.80;;;;;;5092061;28;20650;-50
2021/03/21 06:07:38;;;;;;;6.07;5.27;;;7.70;44.30;;;;;;5091376;28;20637;-50
2021/03/21 06:10:21;;;;;;;8.27;5.70;;;7.60;44.00;;;;;;5091895;28;21182;-51
2021/03/21 06:12:52;;;;;;;6.37;5.77;;;7.70;44.10;;;;;;5091483;28;20982;-50
2021/03/21 06:15:50;;;;;;;7.10;4.90;;;7.60;44.00;;;;;;5092066;28;20666;-49
2021/03/21 06:18:29;;;;;;;6.17;5.53;;;7.60;44.20;;;;;;5070201;28;20621;-50
2021/03/21 06:21:23;;;;;;;6.40;5.63;;;7.60;44.60;;;;;;5091678;28;20637;-50
2021/03/21 06:24:17;;;;;;;9.37;5.90;;;7.70;45.00;;;;;;5088662;28;20649;-50
2021/03/21 06:26:45;;;;;;;6.67;5.60;;;7.70;45.40;;;;;;5086861;28;20640;-50
2021/03/21 06:29:53;;;;;;;8.00;7.20;;;7.70;45.30;;;;;;5083014;28;20630;-49
2021/03/21 06:32:36;;;;;;;7.20;6.23;;;7.80;45.20;;;;;;5071843;28;20685;-50
2021/03/21 06:35:15;;;;;;;6.73;5.47;;;7.80;45.20;;;;;;5026998;28;20675;-49
2021/03/21 06:38:10;;;;;;;7.80;5.90;;;7.70;45.30;;;;;;5071264;28;20696;-49
2021/03/21 06:40:55;;;;;;;8.87;7.57;;;7.70;45.40;;;;;;5071633;28;21176;-50
2021/03/21 06:43:58;;;;;;;7.20;6.13;;;7.70;45.60;;;;;;5070764;28;20725;-50
2021/03/21 06:46:46;;;;;;;7.27;6.57;;;7.70;45.80;;;;;;5085594;28;20633;-50
2021/03/21 06:49:41;;;;;;;7.93;7.07;;;7.80;46.30;;;;;;5060268;28;20695;-50
2021/03/21 06:52:13;;;;;;;7.13;6.47;;;7.80;46.70;;;;;;5086068;28;20638;-49
2021/03/21 06:54:55;;;;;;;9.13;8.20;;;7.80;47.10;;;;;;5090989;28;20720;-50
2021/03/21 06:58:06;;;;;;;8.43;7.60;;;7.80;46.90;;;;;;5091913;28;21151;-49
2021/03/21 07:00:57;;;;;;;7.90;7.20;;;7.80;46.90;;;;;;5094177;28;20665;-50
2021/03/21 07:04:01;;;;;;;9.57;7.90;;;7.80;47.20;;;;;;5091731;28;20662;-50
2021/03/21 07:07:16;;;;;;;10.17;6.90;;;7.80;47.30;;;;;;5088622;28;20626;-50
2021/03/21 07:10:26;;;;;;;8.90;7.57;;;7.80;47.70;;;;;;5091245;28;20622;-50
2021/03/21 07:13:16;;;;;;;8.73;6.43;;;7.70;48.10;;;;;;5020613;28;20640;-50
2021/03/21 07:15:51;;;;;;;9.40;8.00;;;7.50;49.10;;;;;;5070754;28;20653;-50
2021/03/21 07:18:47;;;;;;;7.87;6.60;;;7.50;49.70;;;;;;5074529;28;20629;-50
2021/03/21 07:22:03;;;;;;;9.13;7.40;;;7.50;50.80;;;;;;5082477;28;21272;-50
2021/03/21 07:24:48;;;;;;;8.47;7.57;;;7.40;51.60;;;;;;5087101;28;20645;-51
2021/03/21 07:27:26;;;;;;;8.93;8.03;;;7.50;52.80;;;;;;5078102;28;20623;-50
2021/03/21 07:29:54;;;;;;;9.93;7.40;;;7.50;53.30;;;;;;5069221;28;20700;-50
2021/03/21 07:32:37;;;;;;;9.90;7.40;;;7.60;54.10;;;;;;5081568;28;20688;-50
2021/03/21 07:35:27;;;;;;;9.57;7.50;;;7.60;54.80;;;;;;5090288;28;20658;-50
2021/03/21 07:37:58;;;;;;;8.60;6.90;;;7.70;55.40;;;;;;5076899;28;20627;-51
2021/03/21 07:40:28;;;;;;;20.40;7.50;;;7.70;55.60;;;;;;5087070;28;21181;-50
2021/03/21 07:43:17;;;;;;;10.93;8.00;;;7.80;55.70;;;;;;5087238;28;20746;-50
2021/03/21 07:46:07;;;;;;;8.90;7.60;;;7.80;55.60;;;;;;5087485;28;20687;-50
2021/03/21 07:48:47;;;;;;;9.20;7.90;;;7.90;55.80;;;;;;5080580;28;20699;-50
2021/03/21 07:51:18;;;;;;;8.53;7.73;;;7.90;55.90;;;;;;5090716;28;20630;-49
2021/03/21 07:53:51;;;;;;;8.87;7.47;;;7.80;56.00;;;;;;5090595;28;20657;-50
2021/03/21 07:56:21;;;;;;;8.63;7.50;;;7.80;56.20;;;;;;5093575;28;20759;-50
2021/03/21 07:58:50;;;;;;;9.83;7.43;;;7.90;57.30;;;;;;5094767;28;20622;-49
2021/03/21 08:01:18;;;;;;;8.43;5.70;;;7.90;57.30;;;;;;5086661;28;20615;-49
2021/03/21 08:03:48;;;;;;;9.40;8.13;;;7.90;57.70;;;;;;5074034;28;20643;-51
2021/03/21 08:06:18;;;;;;;14.50;8.23;;;7.80;57.80;;;;;;5084055;28;20684;-50
2021/03/21 08:08:49;;;;;;;8.10;6.90;;;7.70;58.40;;;;;;5093577;28;20679;-50
2021/03/21 08:11:18;;;;;;;9.40;8.50;;;7.70;59.40;;;;;;5086091;28;20623;-51
2021/03/21 08:13:47;;;;;;;7.20;6.33;;;7.80;60.40;;;;;;5086282;28;20712;-50
2021/03/21 08:16:16;;;;;;;8.47;7.50;;;7.90;60.80;;;;;;5093966;28;20610;-50
2021/03/21 08:18:45;;;;;;;8.77;7.87;;;7.80;61.30;;;;;;5091738;28;20684;-52
2021/03/21 08:21:14;;;;;;;7.73;6.93;;;7.90;61.80;;;;;;5103247;28;21276;-50
2021/03/21 08:23:42;;;;;;;7.87;6.93;;;8.00;61.70;;;;;;5093998;28;20662;-50
2021/03/21 08:26:10;;;;;;;9.90;6.87;;;8.10;61.90;;;;;;5085662;28;20643;-50
2021/03/21 08:28:58;;;;;;;8.70;7.77;;;8.10;61.50;;;;;;5073004;28;20632;-51
2021/03/21 08:31:28;;;;;;;8.87;6.83;;;8.20;62.10;;;;;;5078309;28;20989;-52
2021/03/21 08:33:55;;;;;;;6.93;5.80;;;8.30;62.60;;;;;;5078835;28;21060;-50
2021/03/21 08:36:22;;;;;;;10.07;7.10;;;8.30;63.10;;;;;;5083026;28;20625;-51
2021/03/21 08:38:56;;;;;;;9.13;7.60;;;8.30;63.90;;;;;;5078645;28;20689;-50
2021/03/21 08:41:23;;;;;;;9.03;8.07;;;8.30;65.00;;;;;;5091473;28;21491;-50
2021/03/21 08:43:57;;;;;;;8.57;7.73;;;8.40;65.20;;;;;;5093888;28;21249;-51
2021/03/21 08:46:24;;;;;;;8.33;6.93;;;8.50;65.90;;;;;;5092625;28;20642;-52
2021/03/21 08:49:01;;;;;;;8.97;6.50;;;8.60;66.30;;;;;;5092150;28;21159;-51
2021/03/21 08:51:31;;;;;;;6.43;5.77;;;8.70;67.20;;;;;;5093283;28;20635;-50
2021/03/21 08:54:02;;;;;;;5.83;5.27;;;8.70;67.70;;;;;;5093291;28;21279;-49
2021/03/21 08:56:29;;;;;;;8.23;6.90;;;8.70;68.20;;;;;;5092661;28;20982;-51
2021/03/21 08:59:13;;;;;;;7.03;6.00;;;8.70;68.80;;;;;;5093001;28;20685;-51
2021/03/21 09:01:41;;;;;;;8.13;7.33;;;8.70;70.20;;;;;;5091511;28;20680;-51
2021/03/21 09:04:12;;;;;;;9.10;7.30;;;8.70;70.90;;;;;;5092595;28;20690;-51
2021/03/21 09:06:40;;;;;;;8.57;7.67;;;8.70;71.70;;;;;;5092211;28;20759;-51
2021/03/21 09:09:19;;;;;;;7.87;7.17;;;8.70;72.40;;;;;;5092488;28;20653;-51
2021/03/21 09:11:46;;;;;;;7.57;6.30;;;8.70;73.00;;;;;;5088320;28;20684;-51
2021/03/21 09:14:16;;;;;;;8.13;7.33;;;8.70;74.70;;;;;;5074787;28;20656;-51
2021/03/21 09:16:59;;;;;;;6.97;6.27;;;8.70;74.10;;;;;;5085922;28;20690;-50
2021/03/21 09:19:28;;;;;;;8.37;7.50;;;8.60;74.50;;;;;;5079557;28;21695;-51
2021/03/21 09:21:55;;;;;;;7.13;5.40;;;8.60;75.50;;;;;;5084496;28;20683;-51
2021/03/21 09:24:24;;;;;;;8.77;7.87;;;8.60;76.50;;;;;;5082213;28;20669;-51
2021/03/21 09:26:51;;;;;;;7.77;7.03;;;8.50;76.90;;;;;;5081533;28;20627;-51
2021/03/21 09:29:32;;;;;;;5.80;5.30;;;8.60;77.90;;;;;;5081619;28;20621;-51
2021/03/21 09:32:04;;;;;;;8.47;6.73;;;8.60;78.50;;;;;;5084795;28;20629;-51
2021/03/21 09:34:47;;;;;;;7.40;6.70;;;8.80;79.00;;;;;;5080723;28;21248;-50
2021/03/21 09:37:16;;;;;;;5.73;5.23;;;9.00;78.20;;;;;;5104529;28;20647;-52
2021/03/21 09:39:49;;;;;;;7.53;6.83;;;9.10;77.10;;;;;;5079986;28;20619;-49
2021/03/21 09:42:16;;;;;;;7.93;6.60;;;9.20;76.60;;;;;;5091574;28;20628;-51
2021/03/21 09:44:44;;;;;;;6.63;5.97;;;9.40;76.30;;;;;;5092031;28;20656;-49
2021/03/21 09:47:27;;;;;;;7.27;6.20;;;9.50;72.70;;;;;;5091964;28;20693;-50
2021/03/21 09:49:57;;;;;;;7.20;6.47;;;9.60;69.90;;;;;;5083324;28;20664;-49
2021/03/21 09:52:33;;;;;;;9.67;7.20;;;9.60;68.80;;;;;;5071457;28;20686;-50
2021/03/21 09:55:07;;;;;;;7.87;7.07;;;9.60;68.90;;;;;;5082059;28;20699;-50
2021/03/21 09:57:59;;;;;;;8.30;7.50;;;9.60;69.00;;;;;;5091059;28;20616;-50
2021/03/21 10:00:26;;;;;;;7.90;7.10;;;9.60;69.00;;;;;;5065421;28;21117;-50
2021/03/21 10:03:01;;;;;;;7.67;6.97;;;9.60;70.00;;;;;;5077024;28;20633;-50
2021/03/21 10:05:31;;;;;;;7.70;6.90;;;9.50;74.20;;;;;;5071731;28;21172;-50
2021/03/21 10:08:06;;;;;;;6.67;5.97;;;9.50;78.90;;;;;;5083639;28;20625;-49
2021/03/21 10:10:35;;;;;;;5.20;4.37;;;9.50;82.80;;;;;;5081278;28;20677;-50
2021/03/21 10:13:01;;;;;;;4.87;4.37;;;9.50;89.10;;;;;;5088331;28;20662;-49
2021/03/21 10:15:28;;;;;;;4.30;3.90;;;9.70;90.50;;;;;;5090921;28;20737;-50
2021/03/21 10:17:57;;;;;;;4.10;3.70;;;10.00;89.90;;;;;;5090895;28;20612;-50
2021/03/21 10:21:01;;;;;;;4.00;3.70;;;10.30;88.90;;;;;;5088477;28;20628;-50
2021/03/21 10:24:13;;;;;;;4.70;3.57;;;10.70;85.70;;;;;;5071106;28;20661;-50
2021/03/21 10:27:27;;;;;;;4.30;4.00;;;10.80;83.30;;;;;;5082378;28;20628;-50
2021/03/21 10:30:34;;;;;;;3.50;2.93;;;10.90;82.80;;;;;;5071457;28;20956;-50
2021/03/21 10:33:30;;;;;;;4.90;4.20;;;10.90;83.00;;;;;;5070747;28;21035;-50
2021/03/21 10:35:57;;;;;;;4.40;4.00;;;10.80;82.20;;;;;;5071087;28;20742;-50
2021/03/21 10:38:49;;;;;;;4.20;3.23;;;10.80;82.60;;;;;;5070930;28;20687;-51
2021/03/21 10:41:51;;;;;;;4.67;4.27;;;10.70;81.70;;;;;;5084229;28;20675;-51
2021/03/21 10:44:18;;;;;;;4.33;3.93;;;10.70;81.50;;;;;;5081868;28;20648;-51
2021/03/21 10:46:54;;;;;;;3.33;3.03;;;10.70;81.80;;;;;;5090892;28;20637;-51
2021/03/21 10:49:49;;;;;;;3.47;3.17;;;10.70;81.50;;;;;;5089259;28;20688;-51
2021/03/21 10:52:23;;;;;;;3.43;3.10;;;10.60;81.20;;;;;;5091245;28;20689;-49
2021/03/21 10:55:38;;;;;;;6.23;4.70;;;10.60;80.90;;;;;;5090196;28;20666;-49
2021/03/21 10:58:37;;;;;;;4.20;3.80;;;10.70;81.30;;;;;;5089180;28;21313;-50
2021/03/21 11:01:25;;;;;;;4.03;3.73;;;10.80;81.00;;;;;;5089462;28;20620;-51
2021/03/21 11:04:04;;;;;;;4.30;3.90;;;11.00;80.40;;;;;;5090245;28;20683;-49
2021/03/21 11:06:32;;;;;;;4.77;4.27;;;11.10;79.10;;;;;;5090604;28;20616;-49
2021/03/21 11:09:08;;;;;;;4.63;4.23;;;11.10;78.60;;;;;;5083853;28;20621;-49
2021/03/21 11:11:36;;;;;;;4.40;3.87;;;11.30;78.90;;;;;;5089307;28;20833;-49
2021/03/21 11:14:14;;;;;;;6.47;3.47;;;11.30;77.70;;;;;;5075754;28;21262;-50
2021/03/21 11:16:48;;;;;;;5.67;5.10;;;11.40;76.70;;;;;;5071220;28;20657;-49
2021/03/21 11:19:14;;;;;;;4.60;4.20;;;11.50;76.20;;;;;;5078912;28;20663;-49
2021/03/21 11:21:43;;;;;;;3.50;3.20;;;11.70;74.70;;;;;;5098758;28;20634;-51
2021/03/21 11:24:19;;;;;;;4.50;4.10;;;11.80;74.00;;;;;;5088659;28;20653;-51
2021/03/21 11:26:46;;;;;;;3.53;3.23;;;11.90;73.00;;;;;;5073703;28;20632;-49
2021/03/21 11:29:31;;;;;;;4.17;3.23;;;11.90;72.40;;;;;;5089817;28;20629;-50
2021/03/21 11:32:02;;;;;;;4.73;4.23;;;12.10;72.40;;;;;;5094054;28;20634;-50
2021/03/21 11:34:31;;;;;;;3.63;3.00;;;12.40;71.40;;;;;;5093599;28;20703;-50
2021/03/21 11:37:00;;;;;;;4.57;4.10;;;12.40;67.80;;;;;;5084086;28;21240;-50
2021/03/21 11:39:30;;;;;;;4.93;3.60;;;12.20;67.70;;;;;;5085351;28;20633;-50
2021/03/21 11:41:57;;;;;;;4.60;4.20;;;12.00;68.00;;;;;;5097151;28;21237;-49
2021/03/21 11:44:26;;;;;;;4.47;4.07;;;11.90;68.70;;;;;;5094085;28;20662;-50
2021/03/21 11:46:54;;;;;;;4.00;3.70;;;11.70;69.20;;;;;;5093465;28;21245;-50
2021/03/21 11:49:22;;;;;;;6.67;5.97;;;11.60;70.00;;;;;;5093626;28;20628;-51
2021/03/21 11:51:51;;;;;;;8.53;6.77;;;11.50;70.50;;;;;;5093068;28;20654;-51
2021/03/21 11:54:19;;;;;;;7.90;5.93;;;11.50;70.70;;;;;;5093040;28;20669;-51
2021/03/21 11:57:01;;;;;;;8.70;6.23;;;11.50;70.70;;;;;;5093519;28;20695;-49
2021/03/21 11:59:31;;;;;;;7.00;5.07;;;11.60;70.40;;;;;;5093486;28;20636;-49
2021/03/21 12:01:58;;;;;;;5.50;5.00;;;11.60;69.80;;;;;;5094228;28;20678;-50
2021/03/21 12:04:26;;;;;;;3.93;3.63;;;11.70;69.90;;;;;;5086380;28;20707;-51
2021/03/21 12:06:53;;;;;;;4.80;3.30;;;11.90;69.30;;;;;;5101791;28;21154;-48
2021/03/21 12:09:24;;;;;;;2.97;2.67;;;12.00;67.20;;;;;;5092358;28;21168;-48
2021/03/21 12:11:51;;;;;;;3.27;2.27;;;12.20;62.80;;;;;;5093428;28;20717;-49
2021/03/21 12:14:25;;;;;;;2.57;2.30;;;12.30;61.40;;;;;;5091876;28;20659;-50
2021/03/21 12:16:53;;;;;;;2.37;2.17;;;12.30;59.50;;;;;;5093526;28;20649;-50
2021/03/21 12:19:28;;;;;;;2.47;2.30;;;12.50;58.70;;;;;;5092979;28;20686;-48
2021/03/21 12:21:55;;;;;;;3.07;2.73;;;12.50;57.60;;;;;;5100575;28;20831;-49
2021/03/21 12:24:23;;;;;;;2.70;2.50;;;12.70;56.90;;;;;;5108924;28;20721;-49
2021/03/21 12:26:52;;;;;;;1.93;1.83;;;12.90;56.70;;;;;;5094616;28;20677;-49
2021/03/21 12:29:34;;;;;;;2.70;2.50;;;13.20;56.10;;;;;;5078174;28;20625;-48
2021/03/21 12:32:23;;;;;;;3.60;2.83;;;13.30;54.70;;;;;;5072832;28;20629;-49
2021/03/21 12:34:51;;;;;;;3.20;2.57;;;13.40;54.40;;;;;;5086269;28;20664;-50
2021/03/21 12:37:21;;;;;;;4.30;2.47;;;13.30;54.20;;;;;;5092699;28;20632;-48
2021/03/21 12:39:49;;;;;;;3.10;2.87;;;13.30;54.10;;;;;;5094205;28;20628;-50
2021/03/21 12:42:32;;;;;;;3.30;3.00;;;13.30;53.30;;;;;;5099366;28;20632;-51
2021/03/21 12:45:07;;;;;;;3.00;2.80;;;13.40;53.10;;;;;;5092662;28;21165;-51
2021/03/21 12:47:36;;;;;;;2.30;2.20;;;13.40;52.00;;;;;;5092703;28;21271;-51
2021/03/21 12:50:28;;;;;;;2.70;2.10;;;13.50;51.70;;;;;;5092547;28;21180;-52
2021/03/21 12:52:55;;;;;;;2.90;2.70;;;13.40;51.00;;;;;;5081600;28;20615;-52
2021/03/21 12:55:23;;;;;;;2.40;2.20;;;13.40;50.60;;;;;;5092211;28;20719;-52
2021/03/21 12:57:52;;;;;;;3.33;3.10;;;13.40;50.60;;;;;;5091846;28;20706;-52
2021/03/21 13:00:21;;;;;;;2.87;2.67;;;13.30;50.90;;;;;;5092518;28;20681;-49
2021/03/21 13:02:51;;;;;;;2.63;2.33;;;13.30;50.90;;;;;;5102135;28;20639;-49
2021/03/21 13:05:19;;;;;;;2.60;2.40;;;13.20;50.80;;;;;;5092475;28;20729;-50
2021/03/21 13:07:46;;;;;;;2.23;2.13;;;13.20;50.80;;;;;;5091189;28;20648;-51
2021/03/21 13:10:13;;;;;;;2.70;2.40;;;13.10;50.90;;;;;;5091701;28;20624;-49
2021/03/21 13:12:40;;;;;;;2.50;2.30;;;13.20;51.30;;;;;;5087990;28;20645;-49
2021/03/21 13:15:08;;;;;;;2.60;2.40;;;13.40;49.90;;;;;;5072360;28;20648;-50
2021/03/21 13:17:34;;;;;;;2.70;2.50;;;13.80;49.80;;;;;;5092093;28;20628;-50
2021/03/21 13:20:03;;;;;;;2.30;2.00;;;14.30;49.00;;;;;;5091150;28;20799;-50
2021/03/21 13:22:30;;;;;;;2.13;1.93;;;14.60;47.90;;;;;;5091995;28;20632;-52
2021/03/21 13:24:56;;;;;;;1.70;1.60;;;14.80;47.70;;;;;;5092382;28;20652;-50
2021/03/21 13:27:23;;;;;;;2.30;2.10;;;14.90;46.90;;;;;;5091955;28;20631;-50
2021/03/21 13:29:50;;;;;;;2.40;2.20;;;15.40;46.10;;;;;;5092183;28;20636;-50
2021/03/21 13:32:17;;;;;;;1.60;1.50;;;15.80;44.80;;;;;;5089828;28;20666;-51